Time;durP1;ratioP1;P1;durP2;ratioP2;P2;SDS_P1;SDS_P2;PMS_P1;PMS_P2;Temp;Humidity;BMP_temperature;BMP_pressure;BME280_temperature;BME280_humidity;BME280_pressure;Samples;Min_cycle;Max_cycle;Signal;HPM_P1;HPM_P2
2022/03/03 00:00:20;;;;;;;;;;;2.20;99.90;;;;;;5071822;28;20254;-71
2022/03/03 00:02:45;;;;;;;;;;;2.10;99.90;;;;;;5072838;28;19981;-73
2022/03/03 00:05:12;;;;;;;;;;;2.10;99.90;;;;;;5076067;28;19935;-73
2022/03/03 00:07:37;;;;;;;;;;;2.00;99.90;;;;;;5091360;28;19930;-74
2022/03/03 00:10:04;;;;;;;;;;;2.00;99.90;;;;;;5091528;28;19919;-72
2022/03/03 00:12:29;;;;;;;;;;;2.00;99.90;;;;;;5072372;28;19920;-73
2022/03/03 00:14:55;;;;;;;;;;;1.90;99.90;;;;;;5091752;28;20004;-72
2022/03/03 00:17:20;;;;;;;;;;;1.90;99.90;;;;;;5090636;28;20019;-72
2022/03/03 00:19:46;;;;;;;;;;;1.90;99.90;;;;;;5091439;28;19934;-72
2022/03/03 00:22:12;;;;;;;;;;;1.80;99.90;;;;;;5074238;28;20160;-73
2022/03/03 00:24:37;;;;;;;;;;;1.80;99.90;;;;;;5091113;28;19924;-73
2022/03/03 00:27:04;;;;;;;;;;;1.80;99.90;;;;;;5055855;28;19926;-74
2022/03/03 00:29:29;;;;;;;;;;;1.80;99.90;;;;;;5072131;28;19931;-72
2022/03/03 00:31:55;;;;;;;;;;;1.80;99.90;;;;;;5077763;28;20232;-74
2022/03/03 00:34:20;;;;;;;;;;;1.80;99.90;;;;;;5091304;28;19922;-73
2022/03/03 00:36:46;;;;;;;;;;;1.80;99.90;;;;;;5092184;28;20007;-74
2022/03/03 00:39:11;;;;;;;;;;;1.80;99.90;;;;;;5079653;28;19926;-72
2022/03/03 00:41:37;;;;;;;;;;;1.80;99.90;;;;;;5055257;28;20188;-74
2022/03/03 00:44:05;;;;;;;;;;;1.70;99.90;;;;;;5071185;28;19931;-74
2022/03/03 00:46:32;;;;;;;;;;;1.70;99.90;;;;;;5077908;28;20348;-73
2022/03/03 00:48:58;;;;;;;;;;;1.60;99.90;;;;;;5091555;28;19920;-74
2022/03/03 00:51:23;;;;;;;;;;;1.60;99.90;;;;;;5056843;28;20416;-73
2022/03/03 00:53:50;;;;;;;;;;;1.50;99.90;;;;;;5074428;28;19920;-73
2022/03/03 00:56:17;;;;;;;;;;;1.50;99.90;;;;;;5089051;28;19919;-73
2022/03/03 00:58:43;;;;;;;;;;;1.50;99.90;;;;;;5090471;28;19939;-73
2022/03/03 01:01:09;;;;;;;;;;;1.50;99.90;;;;;;5089655;28;20327;-75
2022/03/03 01:03:34;;;;;;;;;;;1.50;99.90;;;;;;5073515;28;19919;-74
2022/03/03 01:06:00;;;;;;;;;;;1.40;99.90;;;;;;5090281;28;20361;-73
2022/03/03 01:08:26;;;;;;;;;;;1.40;99.90;;;;;;5090741;28;19926;-73
2022/03/03 01:10:52;;;;;;;;;;;1.30;99.90;;;;;;5072327;28;20290;-72
2022/03/03 01:13:17;;;;;;;;;;;1.30;99.90;;;;;;5090674;28;20015;-72
2022/03/03 01:15:43;;;;;;;;;;;1.20;99.90;;;;;;5071610;28;20339;-72
2022/03/03 01:18:09;;;;;;;;;;;1.10;99.90;;;;;;5070498;28;20359;-73
2022/03/03 01:20:35;;;;;;;;;;;1.10;99.90;;;;;;5052675;28;19976;-73
2022/03/03 01:23:00;;;;;;;;;;;1.10;99.90;;;;;;5071811;28;19928;-74
2022/03/03 01:25:26;;;;;;;;;;;1.00;99.90;;;;;;5068065;28;20019;-73
2022/03/03 01:27:51;;;;;;;;;;;1.00;99.90;;;;;;5070598;28;19921;-74
2022/03/03 01:30:17;;;;;;;;;;;0.90;99.90;;;;;;5071203;28;20016;-75
2022/03/03 01:32:42;;;;;;;;;;;1.00;99.90;;;;;;5070185;28;19932;-72
2022/03/03 01:35:08;;;;;;;;;;;0.90;99.90;;;;;;5106269;28;19927;-73
2022/03/03 01:37:34;;;;;;;;;;;0.90;99.90;;;;;;5111728;28;20344;-73
2022/03/03 01:39:59;;;;;;;;;;;0.90;99.90;;;;;;5096884;28;19920;-73
2022/03/03 01:42:25;;;;;;;;;;;0.90;99.90;;;;;;5113226;28;20360;-73
2022/03/03 01:44:51;;;;;;;;;;;0.90;99.90;;;;;;5085342;28;20015;-73
2022/03/03 01:47:17;;;;;;;;;;;0.90;99.90;;;;;;5057369;28;20425;-73
2022/03/03 01:49:43;;;;;;;;;;;0.90;99.90;;;;;;5073848;28;20167;-73
2022/03/03 01:52:09;;;;;;;;;;;0.90;99.90;;;;;;5073761;28;20103;-74
2022/03/03 01:54:34;;;;;;;;;;;0.80;99.90;;;;;;5082895;28;19920;-73
2022/03/03 01:57:00;;;;;;;;;;;0.90;99.90;;;;;;5093364;28;19920;-73
2022/03/03 01:59:26;;;;;;;;;;;0.80;99.90;;;;;;5076972;28;19945;-74
2022/03/03 02:01:51;;;;;;;;;;;0.80;99.90;;;;;;5094651;28;19920;-73
2022/03/03 02:04:17;;;;;;;;;;;0.80;99.90;;;;;;5094255;28;19927;-74
2022/03/03 02:06:42;;;;;;;;;;;0.80;99.90;;;;;;5094171;28;19924;-73
2022/03/03 02:09:08;;;;;;;;;;;0.80;99.90;;;;;;5094210;28;19943;-72
2022/03/03 02:11:34;;;;;;;;;;;0.90;99.90;;;;;;5091184;28;19920;-73
2022/03/03 02:14:01;;;;;;;;;;;0.90;99.90;;;;;;5076869;28;19920;-72
2022/03/03 02:16:27;;;;;;;;;;;0.80;99.90;;;;;;5075836;28;19927;-73
2022/03/03 02:18:53;;;;;;;;;;;0.80;99.90;;;;;;5094675;28;20343;-72
2022/03/03 02:21:19;;;;;;;;;;;0.80;99.90;;;;;;5094301;28;19919;-73
2022/03/03 02:23:44;;;;;;;;;;;0.80;99.90;;;;;;5094386;28;19931;-73
2022/03/03 02:26:21;;;;;;;;;;;0.80;99.90;;;;;;5091166;28;19920;-74
2022/03/03 02:28:47;;;;;;;;;;;0.80;99.90;;;;;;5093150;28;20288;-71
2022/03/03 02:31:13;;;;;;;;;;;0.80;99.90;;;;;;5092907;28;19924;-72
2022/03/03 02:33:38;;;;;;;;;;;0.70;99.90;;;;;;5072412;28;19966;-72
2022/03/03 02:36:21;;;;;;;;;;;0.70;99.90;;;;;;5073700;28;19921;-72
2022/03/03 02:38:47;;;;;;;;;;;0.60;99.90;;;;;;5072859;28;19970;-72
2022/03/03 02:41:13;;;;;;;;;;;0.70;99.90;;;;;;5071116;28;20476;-72
2022/03/03 02:43:39;;;;;;;;;;;0.60;99.90;;;;;;5055772;28;19928;-73
2022/03/03 02:46:05;;;;;;;;;;;0.60;99.90;;;;;;5073729;28;20014;-74
2022/03/03 02:48:30;;;;;;;;;;;0.50;99.90;;;;;;5072630;28;19942;-73
2022/03/03 02:50:56;;;;;;;;;;;0.50;99.90;;;;;;5055305;28;19920;-73
2022/03/03 02:53:21;;;;;;;;;;;0.60;99.90;;;;;;5074200;28;20458;-73
2022/03/03 02:55:47;;;;;;;;;;;0.50;99.90;;;;;;5053634;28;19970;-73
2022/03/03 02:58:12;;;;;;;;;;;0.50;99.90;;;;;;5074060;28;20364;-72
2022/03/03 03:00:43;;;;;;;;;;;0.50;99.90;;;;;;5073108;28;19924;-72
2022/03/03 03:03:09;;;;;;;;;;;0.50;99.90;;;;;;5073648;28;20407;-73
2022/03/03 03:05:35;;;;;;;;;;;0.40;99.90;;;;;;5071859;28;20018;-71
2022/03/03 03:08:01;;;;;;;;;;;0.40;99.90;;;;;;5072396;28;19920;-72
2022/03/03 03:10:27;;;;;;;;;;;0.40;99.90;;;;;;5071825;28;20019;-73
2022/03/03 03:12:52;;;;;;;;;;;0.40;99.90;;;;;;5073291;28;19935;-72
2022/03/03 03:15:18;;;;;;;;;;;0.40;99.90;;;;;;5071887;28;19920;-72
2022/03/03 03:17:44;;;;;;;;;;;0.30;99.90;;;;;;5073281;28;19926;-72
2022/03/03 03:20:10;;;;;;;;;;;0.30;99.90;;;;;;5073717;28;19931;-74
2022/03/03 03:22:36;;;;;;;;;;;0.20;99.90;;;;;;5073149;28;20260;-73
2022/03/03 03:25:02;;;;;;;;;;;0.20;99.90;;;;;;5055970;28;19924;-74
2022/03/03 03:27:28;;;;;;;;;;;0.30;99.90;;;;;;5070559;28;19920;-73
2022/03/03 03:29:54;;;;;;;;;;;0.30;99.90;;;;;;5073164;28;20007;-73
2022/03/03 03:32:20;;;;;;;;;;;0.20;99.90;;;;;;5055414;28;20331;-73
2022/03/03 03:34:45;;;;;;;;;;;0.30;99.90;;;;;;5072907;28;20338;-72
2022/03/03 03:37:11;;;;;;;;;;;0.30;99.90;;;;;;5071356;28;19936;-72
2022/03/03 03:39:37;;;;;;;;;;;0.30;99.90;;;;;;5055197;28;20284;-73
2022/03/03 03:42:02;;;;;;;;;;;0.30;99.90;;;;;;5069859;28;19924;-73
2022/03/03 03:44:28;;;;;;;;;;;0.40;99.90;;;;;;5073079;28;19920;-73
2022/03/03 03:46:54;;;;;;;;;;;0.40;99.90;;;;;;5071117;28;19920;-74
2022/03/03 03:49:19;;;;;;;;;;;0.40;99.90;;;;;;5073459;28;20331;-72
2022/03/03 03:51:45;;;;;;;;;;;0.50;99.90;;;;;;5071073;28;20249;-73
2022/03/03 03:54:11;;;;;;;;;;;0.50;99.90;;;;;;5077559;28;19956;-74
2022/03/03 03:56:36;;;;;;;;;;;0.50;99.90;;;;;;5089802;28;20421;-74
2022/03/03 03:59:02;;;;;;;;;;;0.50;99.90;;;;;;5092166;28;19972;-73
2022/03/03 04:01:30;;;;;;;;;;;0.40;99.90;;;;;;5092615;28;19974;-73
2022/03/03 04:03:57;;;;;;;;;;;0.40;99.90;;;;;;5090697;28;19920;-74
2022/03/03 04:06:22;;;;;;;;;;;0.40;99.90;;;;;;5091334;28;19931;-73
2022/03/03 04:08:48;;;;;;;;;;;0.40;99.90;;;;;;5074660;28;19920;-73
2022/03/03 04:11:14;;;;;;;;;;;0.40;99.90;;;;;;5091038;28;19920;-73
2022/03/03 04:13:39;;;;;;;;;;;0.40;99.90;;;;;;5091333;28;19950;-74
2022/03/03 04:16:05;;;;;;;;;;;0.50;99.90;;;;;;5092384;28;19977;-73
2022/03/03 04:18:31;;;;;;;;;;;0.30;99.90;;;;;;5091095;28;19920;-73
2022/03/03 04:20:57;;;;;;;;;;;0.30;99.90;;;;;;5074003;28;20318;-73
2022/03/03 04:23:23;;;;;;;;;;;0.30;99.90;;;;;;5092830;28;19920;-74
2022/03/03 04:25:49;;;;;;;;;;;0.30;99.90;;;;;;5090484;28;19989;-74
2022/03/03 04:28:14;;;;;;;;;;;0.20;99.90;;;;;;5074637;28;20018;-73
2022/03/03 04:30:40;;;;;;;;;;;0.30;99.90;;;;;;5073934;28;19949;-73
2022/03/03 04:33:06;;;;;;;;;;;0.20;99.90;;;;;;5074466;28;19927;-72
2022/03/03 04:35:31;;;;;;;;;;;0.40;99.90;;;;;;5071729;28;19925;-74
2022/03/03 04:37:57;;;;;;;;;;;0.50;99.90;;;;;;5089879;28;20291;-73
2022/03/03 04:40:23;;;;;;;;;;;0.50;99.90;;;;;;5089306;28;19935;-73
2022/03/03 04:42:49;;;;;;;;;;;0.50;99.90;;;;;;5091094;28;19927;-73
2022/03/03 04:45:15;;;;;;;;;;;0.50;99.90;;;;;;5073935;28;19920;-74
2022/03/03 04:47:41;;;;;;;;;;;0.60;99.90;;;;;;5092321;28;20068;-73
2022/03/03 04:50:08;;;;;;;;;;;0.50;99.90;;;;;;5092357;28;19920;-73
2022/03/03 04:52:33;;;;;;;;;;;0.60;99.90;;;;;;5090609;28;19920;-73
2022/03/03 04:54:59;;;;;;;;;;;0.60;99.90;;;;;;5091753;28;19927;-74
2022/03/03 04:57:24;;;;;;;;;;;0.70;99.90;;;;;;5089035;28;20002;-74
2022/03/03 04:59:50;;;;;;;;;;;0.60;99.90;;;;;;5091505;28;19988;-74
2022/03/03 05:02:16;;;;;;;;;;;0.60;99.90;;;;;;5090229;28;19959;-73
2022/03/03 05:04:41;;;;;;;;;;;0.60;99.90;;;;;;5090754;28;20317;-74
2022/03/03 05:07:08;;;;;;;;;;;0.60;99.90;;;;;;5089701;28;20033;-73
2022/03/03 05:09:34;;;;;;;;;;;0.50;99.90;;;;;;5057603;28;19927;-73
2022/03/03 05:11:59;;;;;;;;;;;0.50;99.90;;;;;;5088190;28;19920;-73
2022/03/03 05:14:25;;;;;;;;;;;0.50;99.90;;;;;;5078402;28;20261;-73
2022/03/03 05:16:51;;;;;;;;;;;0.40;99.90;;;;;;5069260;28;20455;-73
2022/03/03 05:19:17;;;;;;;;;;;0.40;99.90;;;;;;5053580;28;20010;-73
2022/03/03 05:21:42;;;;;;;;;;;0.30;99.90;;;;;;5053332;28;19924;-73
2022/03/03 05:24:08;;;;;;;;;;;0.30;99.90;;;;;;5090351;28;19924;-73
2022/03/03 05:26:34;;;;;;;;;;;0.30;99.90;;;;;;5071687;28;19992;-74
2022/03/03 05:29:00;;;;;;;;;;;0.30;99.90;;;;;;5073475;28;19920;-72
2022/03/03 05:31:26;;;;;;;;;;;0.20;99.90;;;;;;5091372;28;19927;-72
2022/03/03 05:33:51;;;;;;;;;;;0.10;99.90;;;;;;5089928;28;19920;-73
2022/03/03 05:36:17;;;;;;;;;;;0.10;99.90;;;;;;5072847;28;20442;-73
2022/03/03 05:38:43;;;;;;;;;;;0.00;99.90;;;;;;5090313;28;20284;-73
2022/03/03 05:41:08;;;;;;;;;;;-0.10;99.90;;;;;;5088133;28;19935;-73
2022/03/03 05:43:35;;;;;;;;;;;-0.10;99.90;;;;;;5090513;28;19928;-72
2022/03/03 05:46:01;;;;;;;;;;;-0.10;99.90;;;;;;5072874;28;20008;-72
2022/03/03 05:48:27;;;;;;;;;;;-0.20;99.90;;;;;;5091782;28;19920;-72
2022/03/03 05:50:53;;;;;;;;;;;-0.20;99.90;;;;;;5089387;28;19977;-73
2022/03/03 05:53:19;;;;;;;;;;;-0.20;99.90;;;;;;5090683;28;19942;-73
2022/03/03 05:55:47;;;;;;;;;;;-0.20;99.90;;;;;;5055045;28;19924;-74
2022/03/03 05:58:17;;;;;;;;;;;-0.20;99.90;;;;;;5090760;28;19931;-73
2022/03/03 06:00:43;;;;;;;;;;;-0.20;99.90;;;;;;5090040;28;19954;-73
2022/03/03 06:03:12;;;;;;;;;;;-0.20;99.90;;;;;;5089675;28;19927;-72
2022/03/03 06:05:41;;;;;;;;;;;-0.30;99.90;;;;;;5073050;28;19977;-74
2022/03/03 06:08:07;;;;;;;;;;;-0.30;99.90;;;;;;5090537;28;20389;-73
2022/03/03 06:10:33;;;;;;;;;;;-0.30;99.90;;;;;;5088286;28;19967;-74
2022/03/03 06:13:19;;;;;;;;;;;-0.30;99.90;;;;;;5089728;28;20007;-74
2022/03/03 06:15:46;;;;;;;;;;;-0.40;99.90;;;;;;5090301;28;19920;-73
2022/03/03 06:18:12;;;;;;;;;;;-0.40;99.90;;;;;;5089158;28;20284;-73
2022/03/03 06:20:39;;;;;;;;;;;-0.40;99.90;;;;;;5089552;28;20033;-73
2022/03/03 06:23:05;;;;;;;;;;;-0.40;99.90;;;;;;5089885;28;19927;-74
2022/03/03 06:25:30;;;;;;;;;;;-0.40;99.90;;;;;;5089622;28;19979;-73
2022/03/03 06:27:56;;;;;;;;;;;-0.40;99.90;;;;;;5093613;28;19965;-74
2022/03/03 06:30:22;;;;;;;;;;;-0.40;99.90;;;;;;5094549;28;19931;-73
2022/03/03 06:32:47;;;;;;;;;;;-0.40;99.90;;;;;;5089452;28;19920;-73
2022/03/03 06:35:13;;;;;;;;;;;-0.30;99.90;;;;;;5072623;28;19920;-74
2022/03/03 06:37:38;;;;;;;;;;;-0.30;99.90;;;;;;5056700;28;20011;-74
2022/03/03 06:40:04;;;;;;;;;;;-0.20;99.90;;;;;;5072898;28;19920;-73
2022/03/03 06:42:30;;;;;;;;;;;-0.20;99.90;;;;;;5072825;28;19928;-73
2022/03/03 06:44:56;;;;;;;;;;;-0.20;99.90;;;;;;5072370;28;20276;-74
2022/03/03 06:47:22;;;;;;;;;;;-0.10;99.90;;;;;;5056065;28;19925;-73
2022/03/03 06:49:48;;;;;;;;;;;-0.10;99.90;;;;;;5040146;28;19921;-74
2022/03/03 06:52:15;;;;;;;;;;;0.10;99.90;;;;;;5072533;28;19974;-74
2022/03/03 06:54:45;;;;;;;;;;;0.00;99.90;;;;;;5074680;28;20001;-73
2022/03/03 06:57:11;;;;;;;;;;;0.10;99.90;;;;;;5090444;28;20313;-72
2022/03/03 06:59:37;;;;;;;;;;;0.10;99.90;;;;;;5092827;28;19974;-73
2022/03/03 07:02:03;;;;;;;;;;;0.20;99.90;;;;;;5075087;28;20302;-73
2022/03/03 07:04:29;;;;;;;;;;;0.20;99.90;;;;;;5093967;28;19920;-73
2022/03/03 07:06:55;;;;;;;;;;;0.20;99.90;;;;;;5092231;28;20334;-73
2022/03/03 07:09:21;;;;;;;;;;;0.20;99.90;;;;;;5091513;28;19920;-73
2022/03/03 07:11:47;;;;;;;;;;;0.30;99.90;;;;;;5091374;28;19920;-73
2022/03/03 07:14:13;;;;;;;;;;;0.30;99.90;;;;;;5083705;28;19971;-71
2022/03/03 07:16:39;;;;;;;;;;;0.30;99.90;;;;;;5085397;28;19959;-72
2022/03/03 07:19:05;;;;;;;;;;;0.40;99.90;;;;;;5073123;28;19921;-73
2022/03/03 07:21:50;;;;;;;;;;;0.40;99.90;;;;;;5092784;28;19924;-73
2022/03/03 07:24:21;;;;;;;;;;;0.50;99.90;;;;;;5074829;28;19920;-73
2022/03/03 07:26:48;;;;;;;;;;;0.60;99.90;;;;;;5070025;28;19920;-73
2022/03/03 07:29:15;;;;;;;;;;;0.70;99.90;;;;;;5086760;28;19931;-73
2022/03/03 07:31:46;;;;;;;;;;;0.70;99.90;;;;;;5073711;28;19933;-72
2022/03/03 07:34:12;;;;;;;;;;;0.70;99.90;;;;;;5084290;28;20383;-74
2022/03/03 07:36:40;;;;;;;;;;;0.80;99.90;;;;;;5055645;28;19920;-73
2022/03/03 07:39:06;;;;;;;;;;;0.80;99.90;;;;;;5090815;28;19920;-72
2022/03/03 07:41:32;;;;;;;;;;;0.90;99.90;;;;;;5088260;28;19942;-73
2022/03/03 07:43:59;;;;;;;;;;;0.90;99.90;;;;;;5062062;28;19927;-73
2022/03/03 07:46:25;;;;;;;;;;;1.00;99.90;;;;;;5083218;28;19920;-73
2022/03/03 07:48:53;;;;;;;;;;;1.00;99.90;;;;;;5073058;28;19920;-72
2022/03/03 07:51:20;;;;;;;;;;;1.10;99.90;;;;;;5077837;28;19927;-73
2022/03/03 07:53:46;;;;;;;;;;;1.10;99.90;;;;;;5093099;28;19978;-73
2022/03/03 07:56:21;;;;;;;;;;;1.20;99.90;;;;;;5090131;28;20012;-74
2022/03/03 07:58:47;;;;;;;;;;;1.20;99.90;;;;;;5091770;28;20244;-75
2022/03/03 08:01:17;;;;;;;;;;;1.30;99.90;;;;;;5090372;28;19975;-75
2022/03/03 08:03:45;;;;;;;;;;;1.40;99.90;;;;;;5089886;28;20006;-74
2022/03/03 08:06:11;;;;;;;;;;;1.50;99.90;;;;;;5090657;28;19920;-74
2022/03/03 08:08:37;;;;;;;;;;;1.60;99.90;;;;;;5092643;28;19920;-73
2022/03/03 08:11:04;;;;;;;;;;;1.60;99.90;;;;;;5089634;28;19981;-73
2022/03/03 08:13:30;;;;;;;;;;;1.70;99.90;;;;;;5090450;28;19962;-73
2022/03/03 08:15:56;;;;;;;;;;;1.70;99.90;;;;;;5090771;28;19920;-74
2022/03/03 08:18:26;;;;;;;;;;;1.80;99.90;;;;;;5073867;28;19924;-75
2022/03/03 08:20:53;;;;;;;;;;;1.90;99.90;;;;;;5092263;28;19928;-74
2022/03/03 08:23:20;;;;;;;;;;;2.00;99.90;;;;;;5092368;28;19920;-73
2022/03/03 08:25:47;;;;;;;;;;;2.10;99.90;;;;;;5089161;28;20410;-74
2022/03/03 08:28:13;;;;;;;;;;;2.20;99.90;;;;;;5091030;28;19931;-73
2022/03/03 08:30:39;;;;;;;;;;;2.20;99.90;;;;;;5074276;28;19924;-73
2022/03/03 08:33:11;;;;;;;;;;;2.20;99.90;;;;;;5092467;28;19927;-72
2022/03/03 08:35:40;;;;;;;;;;;2.20;99.90;;;;;;5091910;28;20388;-75
2022/03/03 08:38:26;;;;;;;;;;;2.40;99.90;;;;;;5092514;28;19920;-72
2022/03/03 08:40:53;;;;;;;;;;;2.40;99.90;;;;;;5089893;28;19920;-73
2022/03/03 08:43:20;;;;;;;;;;;2.50;99.90;;;;;;5073756;28;19920;-73
2022/03/03 08:45:48;;;;;;;;;;;2.50;99.90;;;;;;5090643;28;20022;-73
2022/03/03 08:48:14;;;;;;;;;;;2.60;99.90;;;;;;5091415;28;19996;-74
2022/03/03 08:50:42;;;;;;;;;;;2.70;99.90;;;;;;5090857;28;20363;-74
2022/03/03 08:53:08;;;;;;;;;;;2.80;99.90;;;;;;5079720;28;19920;-73
2022/03/03 08:55:34;;;;;;;;;;;2.90;99.90;;;;;;5068206;28;19989;-72
2022/03/03 08:58:00;;;;;;;;;;;3.00;99.90;;;;;;5072141;28;20283;-73
2022/03/03 09:00:27;;;;;;;;;;;3.10;99.90;;;;;;5052992;28;19927;-74
2022/03/03 09:02:53;;;;;;;;;;;3.20;99.90;;;;;;5054151;28;19921;-73
2022/03/03 09:05:19;;;;;;;;;;;3.20;99.90;;;;;;5069661;28;20292;-75
2022/03/03 09:07:45;;;;;;;;;;;3.30;99.90;;;;;;5070303;28;19989;-74
2022/03/03 09:10:11;;;;;;;;;;;3.50;99.90;;;;;;5069545;28;19921;-75
2022/03/03 09:12:37;;;;;;;;;;;3.60;99.90;;;;;;5069366;28;19973;-73
2022/03/03 09:15:03;;;;;;;;;;;3.60;99.90;;;;;;5071317;28;19927;-72
2022/03/03 09:17:29;;;;;;;;;;;3.70;99.90;;;;;;5070503;28;19920;-73
2022/03/03 09:19:55;;;;;;;;;;;3.80;99.90;;;;;;5071090;28;19920;-74
2022/03/03 09:22:20;;;;;;;;;;;3.80;99.90;;;;;;5070879;28;20023;-74
2022/03/03 09:24:46;;;;;;;;;;;4.00;99.90;;;;;;5070466;28;20280;-73
2022/03/03 09:27:11;;;;;;;;;;;4.10;99.90;;;;;;5068932;28;20346;-74
2022/03/03 09:29:37;;;;;;;;;;;4.20;99.90;;;;;;5053359;28;19920;-73
2022/03/03 09:32:03;;;;;;;;;;;4.30;99.90;;;;;;5071096;28;19920;-74
2022/03/03 09:34:29;;;;;;;;;;;4.40;99.90;;;;;;5070932;28;19920;-73
2022/03/03 09:36:55;;;;;;;;;;;4.50;99.90;;;;;;5070810;28;19927;-73
2022/03/03 09:39:21;;;;;;;;;;;4.60;99.90;;;;;;5069630;28;19943;-73
2022/03/03 09:41:47;;;;;;;;;;;4.70;99.90;;;;;;5069575;28;20020;-73
2022/03/03 09:44:13;;;;;;;;;;;4.80;99.90;;;;;;5070176;28;20284;-73
2022/03/03 09:46:40;;;;;;;;;;;4.90;99.90;;;;;;5069984;28;20022;-74
2022/03/03 09:49:06;;;;;;;;;;;4.90;99.90;;;;;;5070082;28;19974;-73
2022/03/03 09:51:32;;;;;;;;;;;5.00;99.90;;;;;;5069616;28;19975;-73
2022/03/03 09:53:58;;;;;;;;;;;5.20;99.90;;;;;;5071415;28;19920;-73
2022/03/03 09:56:23;;;;;;;;;;;5.20;99.90;;;;;;5069335;28;19927;-74
2022/03/03 09:58:49;;;;;;;;;;;5.20;99.90;;;;;;5053681;28;19959;-74
2022/03/03 10:01:17;;;;;;;;;;;5.40;99.90;;;;;;5070761;28;19921;-72
2022/03/03 10:03:47;;;;;;;;;;;5.50;99.90;;;;;;5057256;28;19920;-73
2022/03/03 10:06:13;;;;;;;;;;;5.60;99.90;;;;;;5074670;28;19931;-74
2022/03/03 10:08:38;;;;;;;;;;;5.60;99.90;;;;;;5073684;28;20296;-74
2022/03/03 10:11:04;;;;;;;;;;;5.70;99.90;;;;;;5072400;28;19927;-74
2022/03/03 10:13:49;;;;;;;;;;;5.80;99.90;;;;;;5061472;28;20280;-73
2022/03/03 10:16:32;;;;;;;;;;;6.00;99.90;;;;;;5094137;28;20334;-75
2022/03/03 10:19:04;;;;;;;;;;;6.00;99.90;;;;;;5093815;28;19920;-74
2022/03/03 10:21:30;;;;;;;;;;;6.10;99.90;;;;;;5094276;28;20292;-73
2022/03/03 10:23:56;;;;;;;;;;;6.10;99.90;;;;;;5095289;28;19926;-74
2022/03/03 10:26:32;;;;;;;;;;;6.20;99.90;;;;;;5092294;28;20026;-74
2022/03/03 10:28:59;;;;;;;;;;;6.30;99.90;;;;;;5094076;28;20010;-74
2022/03/03 10:31:28;;;;;;;;;;;6.40;99.90;;;;;;5094105;28;19973;-75
2022/03/03 10:33:54;;;;;;;;;;;6.40;99.90;;;;;;5093990;28;19920;-78
2022/03/03 10:36:22;;;;;;;;;;;6.50;99.90;;;;;;5092757;28;19930;-75
2022/03/03 10:38:55;;;;;;;;;;;6.50;99.90;;;;;;5060848;28;19920;-74
2022/03/03 10:41:40;;;;;;;;;;;6.60;99.90;;;;;;5093110;28;20326;-74
2022/03/03 10:44:17;;;;;;;;;;;6.70;99.90;;;;;;5094247;28;19927;-74
2022/03/03 10:47:01;;;;;;;;;;;6.80;99.90;;;;;;5093003;28;20337;-74
2022/03/03 10:49:28;;;;;;;;;;;6.90;99.90;;;;;;5088542;28;19986;-74
2022/03/03 10:51:53;;;;;;;;;;;6.80;99.90;;;;;;5075588;28;19920;-74
2022/03/03 10:54:20;;;;;;;;;;;6.90;99.90;;;;;;5055036;28;19927;-75
2022/03/03 10:56:47;;;;;;;;;;;6.90;99.90;;;;;;5065916;28;19934;-73
2022/03/03 10:59:21;;;;;;;;;;;7.00;99.90;;;;;;5076361;28;20326;-74
2022/03/03 11:01:47;;;;;;;;;;;7.10;99.90;;;;;;5059087;28;20277;-74
2022/03/03 11:04:14;;;;;;;;;;;7.20;99.90;;;;;;5080113;28;19937;-75
2022/03/03 11:06:40;;;;;;;;;;;7.20;99.90;;;;;;5054940;28;19955;-74
2022/03/03 11:09:07;;;;;;;;;;;7.30;99.90;;;;;;5080990;28;19920;-74
2022/03/03 11:11:33;;;;;;;;;;;7.40;99.90;;;;;;5074088;28;20293;-72
2022/03/03 11:13:59;;;;;;;;;;;7.50;99.90;;;;;;5082003;28;19927;-72
2022/03/03 11:16:25;;;;;;;;;;;7.50;99.90;;;;;;5087588;28;20325;-73
2022/03/03 11:18:51;;;;;;;;;;;7.60;99.90;;;;;;5087317;28;19920;-74
2022/03/03 11:21:18;;;;;;;;;;;7.60;99.90;;;;;;5066231;28;19920;-75
2022/03/03 11:23:55;;;;;;;;;;;7.60;99.90;;;;;;5083057;28;19920;-73
2022/03/03 11:26:30;;;;;;;;;;;7.60;99.90;;;;;;5079870;28;19920;-75
2022/03/03 11:28:58;;;;;;;;;;;7.70;99.90;;;;;;5079810;28;19920;-74
2022/03/03 11:31:32;;;;;;;;;;;7.70;99.90;;;;;;5070950;28;19921;-73
2022/03/03 11:34:16;;;;;;;;;;;7.70;99.90;;;;;;5073019;28;19920;-73
2022/03/03 11:36:43;;;;;;;;;;;7.80;99.90;;;;;;5070873;28;19924;-74
2022/03/03 11:39:10;;;;;;;;;;;7.80;99.90;;;;;;5074214;28;19973;-73
2022/03/03 11:41:45;;;;;;;;;;;7.90;99.90;;;;;;5069165;28;19975;-74
2022/03/03 11:44:13;;;;;;;;;;;8.00;99.90;;;;;;5074033;28;19969;-74
2022/03/03 11:46:46;;;;;;;;;;;8.00;99.90;;;;;;5085236;28;19928;-73
2022/03/03 11:49:15;;;;;;;;;;;8.00;99.90;;;;;;5072868;28;20014;-73
2022/03/03 11:51:42;;;;;;;;;;;8.00;99.90;;;;;;5073914;28;19975;-73
2022/03/03 11:54:11;;;;;;;;;;;8.20;99.90;;;;;;5055200;28;19924;-74
2022/03/03 11:56:55;;;;;;;;;;;8.20;99.90;;;;;;5071224;28;20011;-74
2022/03/03 11:59:32;;;;;;;;;;;8.30;99.90;;;;;;5072191;28;19970;-76
2022/03/03 12:01:57;;;;;;;;;;;8.40;99.90;;;;;;5071372;28;20296;-74
2022/03/03 12:04:26;;;;;;;;;;;8.40;99.90;;;;;;5072118;28;19966;-75
2022/03/03 12:06:53;;;;;;;;;;;8.50;99.90;;;;;;5070827;28;19921;-72
2022/03/03 12:09:26;;;;;;;;;;;8.50;99.90;;;;;;5073777;28;19920;-74
2022/03/03 12:12:10;;;;;;;;;;;8.60;99.90;;;;;;5053930;28;20094;-74
2022/03/03 12:14:50;;;;;;;;;;;8.80;99.90;;;;;;5053974;28;19920;-73
2022/03/03 12:17:42;;;;;;;;;;;8.80;99.90;;;;;;5070471;28;19927;-73
2022/03/03 12:20:30;;;;;;;;;;;8.70;99.90;;;;;;5072215;28;20325;-73
2022/03/03 12:23:02;;;;;;;;;;;8.80;99.90;;;;;;5072117;28;20011;-73
2022/03/03 12:25:48;;;;;;;;;;;8.90;99.90;;;;;;5069377;28;20470;-73
2022/03/03 12:28:17;;;;;;;;;;;9.00;99.90;;;;;;5079632;28;20006;-72
2022/03/03 12:30:43;;;;;;;;;;;9.00;99.90;;;;;;5091374;28;20084;-73
2022/03/03 12:33:18;;;;;;;;;;;9.10;99.90;;;;;;5090451;28;19920;-73
2022/03/03 12:35:45;;;;;;;;;;;9.10;93.30;;;;;;5091465;28;19942;-72
2022/03/03 12:38:11;;;;;;;;;;;9.10;97.10;;;;;;5091006;28;19919;-72
2022/03/03 12:40:36;;;;;;;;;;;9.10;99.90;;;;;;5085939;28;20161;-73
2022/03/03 12:43:02;;;;;;;;;;;9.30;99.90;;;;;;5070514;28;20014;-73
2022/03/03 12:45:31;;;;;;;;;;;9.20;99.90;;;;;;5071526;28;19920;-73
2022/03/03 12:47:56;;;;;;;;;;;9.30;99.90;;;;;;5074274;28;19999;-74
2022/03/03 12:50:25;;;;;;;;;;;9.20;99.90;;;;;;5090596;28;19930;-74
2022/03/03 12:53:08;;;;;;;;;;;9.20;99.90;;;;;;5090499;28;19941;-73
2022/03/03 12:55:35;;;;;;;;;;;9.20;99.90;;;;;;5088781;28;19981;-73
2022/03/03 12:58:01;;;;;;;;;;;9.30;99.90;;;;;;5091086;28;19926;-73
2022/03/03 13:00:27;;;;;;;;;;;9.40;99.90;;;;;;5091039;28;20065;-73
2022/03/03 13:02:59;;;;;;;;;;;9.40;99.90;;;;;;5091517;28;19963;-73
2022/03/03 13:05:37;;;;;;;;;;;9.40;99.90;;;;;;5091196;28;19980;-75
2022/03/03 13:08:04;;;;;;;;;;;9.50;98.30;;;;;;5090496;28;19920;-74
2022/03/03 13:10:31;;;;;;;;;;;9.40;99.90;;;;;;5087278;28;20513;-74
2022/03/03 13:12:57;;;;;;;;;;;9.40;99.90;;;;;;5086164;28;19963;-73
2022/03/03 13:15:32;;;;;;;;;;;9.40;99.90;;;;;;5090053;28;20233;-73
2022/03/03 13:17:57;;;;;;;;;;;9.50;99.90;;;;;;5090217;28;19920;-72
2022/03/03 13:20:24;;;;;;;;;;;9.50;99.90;;;;;;5091278;28;19919;-73
2022/03/03 13:22:49;;;;;;;;;;;9.60;97.30;;;;;;5089858;28;19920;-73
2022/03/03 13:25:19;;;;;;;;;;;9.50;99.90;;;;;;5078632;28;19920;-73
2022/03/03 13:27:46;;;;;;;;;;;9.50;99.90;;;;;;5063926;28;19920;-72
2022/03/03 13:30:12;;;;;;;;;;;9.40;99.90;;;;;;5070124;28;20336;-72
2022/03/03 13:32:44;;;;;;;;;;;9.50;99.90;;;;;;5070739;28;19921;-72
2022/03/03 13:35:10;;;;;;;;;;;9.50;99.90;;;;;;5071608;28;19920;-72
2022/03/03 13:37:35;;;;;;;;;;;9.40;99.90;;;;;;5073363;28;19921;-72
2022/03/03 13:40:18;;;;;;;;;;;9.50;99.90;;;;;;5085230;28;20375;-72
2022/03/03 13:42:44;;;;;;;;;;;9.60;97.60;;;;;;5093338;28;19966;-72
2022/03/03 13:45:10;;;;;;;;;;;9.60;99.90;;;;;;5095222;28;19920;-74
2022/03/03 13:47:41;;;;;;;;;;;9.60;99.90;;;;;;5093228;28;20332;-71
2022/03/03 13:50:08;;;;;;;;;;;9.60;99.90;;;;;;5095349;28;19920;-73
2022/03/03 13:52:35;;;;;;;;;;;9.50;99.90;;;;;;5092792;28;19920;-73
2022/03/03 13:55:15;;;;;;;;;;;9.60;99.90;;;;;;5080069;28;20355;-73
2022/03/03 13:57:40;;;;;;;;;;;9.60;99.90;;;;;;5088031;28;19924;-73
2022/03/03 14:00:24;;;;;;;;;;;9.60;96.70;;;;;;5089010;28;20007;-72
2022/03/03 14:02:51;;;;;;;;;;;9.70;99.90;;;;;;5076828;28;20789;-73
2022/03/03 14:05:17;;;;;;;;;;;9.70;99.90;;;;;;5078770;28;20364;-74
2022/03/03 14:07:50;;;;;;;;;;;9.60;99.90;;;;;;5084943;28;19920;-73
2022/03/03 14:10:15;;;;;;;;;;;9.60;99.90;;;;;;5087992;28;19923;-74
2022/03/03 14:12:59;;;;;;;;;;;9.70;99.90;;;;;;5075515;28;19927;-73
2022/03/03 14:15:26;;;;;;;;;;;9.70;99.90;;;;;;5072761;28;19975;-71
2022/03/03 14:17:52;;;;;;;;;;;9.70;99.90;;;;;;5072741;28;20053;-74
2022/03/03 14:20:18;;;;;;;;;;;9.60;99.90;;;;;;5073713;28;20343;-73
2022/03/03 14:22:53;;;;;;;;;;;9.70;99.90;;;;;;5072524;28;20023;-73
2022/03/03 14:25:19;;;;;;;;;;;9.70;99.90;;;;;;5072403;28;19920;-73
2022/03/03 14:27:44;;;;;;;;;;;9.70;99.90;;;;;;5073380;28;19961;-72
2022/03/03 14:30:10;;;;;;;;;;;9.70;95.30;;;;;;5056349;28;19924;-74